Terminal Aerodrome Forecast
Issued by NWS

Home | Current Version | Previous Version | Text Only | Print | Product List | Glossary On
Versions: 1 2 3 4 5 6 7 8 9 10 11 12 13 14 15 16 17 18 19 20 21 22
446
FTUS43 KABR 220503 AAA
TAFATY
TAF AMD
KATY 220503Z 2205/2224 12005KT P6SM VCTS OVC100CB
      TEMPO 2205/2206 VRB20G45KT 1SM +TSRA OVC025CB
     FM220700 VRB05KT P6SM VCTS SCT050CB BKN100
     FM221700 31014KT P6SM FEW250=

USA.gov is the U.S. government's official web portal to all federal, state and local government web resources and services.